Hauptseite
METAR-TAF:

METAR-TAF

Flughäfen :

Flughafen Irkutsk

Irkutsk, Russland

Breite: 52-16N, Länge: 104-19E, Höhe: 513 m

Beobachtung

Neuester Wetterbericht von vor 22 Minuten, um 05:00 UTC
Wind 8 kt aus West/Nordwest, variierte zwischen West und Nordwest
Temperatur -13°C
Luftfeuchtigkeit 66%
Luftdruck 1033 hPa
Sichtweite 10 km oder mehr
Aufgelockert bewölkt in der Höhe von 2600 ft

METAR: UIII 120500Z 29004MPS 260V320 9999 SCT026 M13/M18 Q1033 R30/820555 NOSIG RMK QFE729/0972

Zeit: 13:22 (05:22 UTC)

Prognose

Neuester Wetterbericht von vor 3 Stunden und 22 Minuten, um 02:00 UTC
Gültige Prognose vom 12 um 03 UTC bis 13 um 03 UTC
Wind 12 kt aus West/Nordwest
Sichtweite 10 km oder mehr
Durchbrochene Bewölkung in der Höhe von 1500 ft, Kumulonimbus.

TAF: UIII 120200Z 1203/1303 30006MPS 9999 BKN015CB

Wetterbeobachtungen und Prognosen von mehr als 4000 Flughäfen (METAR und TAF Bericht).

Die verfügbaren Stationen werden durch gelbe und rote Markierungen auf der Karte dargestellt.

Führen Sie die Maus auf sie, um den Namen der Station zu sehen.

Darauf klicken, um die Beobachtung von Wetterbeobachtungen und Prognosen zu sehen.

Um die Karte zu ändern : klicken Sie auf den grünen Tasten mit einem schwarzen Kreuz Zum Vergrößern, auf den grünen Button mit einem Gedankenstrich zu verkleinern, oder auf die grünen Pfeile für benachbarte Karten.


METAR-TAF: